createdAt,value
2018-07-05T00:02:09.721Z,99560.40
2018-07-05T00:06:24.239Z,99567.67
2018-07-05T00:10:38.819Z,99576.66
2018-07-05T00:14:53.403Z,99566.89
2018-07-05T00:19:08.102Z,99567.91
2018-07-05T00:23:24.681Z,99572.41
2018-07-05T00:27:39.217Z,99571.00
2018-07-05T00:31:53.814Z,99570.14
2018-07-05T00:36:08.283Z,99561.34
2018-07-05T00:40:22.871Z,99565.86
2018-07-05T00:44:38.223Z,99565.30
2018-07-05T00:48:52.857Z,99552.84
2018-07-05T00:53:07.490Z,99564.59
2018-07-05T00:57:22.086Z,99561.61
2018-07-05T01:01:37.664Z,99566.27
2018-07-05T01:05:52.330Z,99568.77
2018-07-05T01:10:07.902Z,99572.42
2018-07-05T01:14:22.515Z,99564.04
2018-07-05T01:18:40.980Z,99563.33
2018-07-05T01:22:55.683Z,99562.17
2018-07-05T01:27:10.223Z,99557.25
2018-07-05T01:31:24.922Z,99554.64
2018-07-05T01:35:39.494Z,99547.15
2018-07-05T01:39:54.083Z,99546.92
2018-07-05T01:44:09.712Z,99547.45
2018-07-05T01:48:24.275Z,99546.11
2018-07-05T01:52:40.354Z,99553.34
2018-07-05T01:56:54.813Z,99549.09
2018-07-05T02:01:10.442Z,99542.86
2018-07-05T02:05:25.093Z,99542.53
2018-07-05T02:09:40.652Z,99547.89
2018-07-05T02:13:55.228Z,99548.38
2018-07-05T02:18:09.724Z,99554.23
2018-07-05T02:22:24.379Z,99550.76
2018-07-05T02:26:38.964Z,99550.76
2018-07-05T02:30:53.607Z,99545.84
2018-07-05T02:35:08.271Z,99551.36
2018-07-05T02:39:28.240Z,99550.50
2018-07-05T02:43:42.654Z,99556.83
2018-07-05T02:47:57.182Z,99554.59
2018-07-05T02:52:12.000Z,99554.59
2018-07-05T02:56:26.526Z,99556.42
2018-07-05T03:00:44.890Z,99551.61
2018-07-05T03:05:02.894Z,99552.94
2018-07-05T03:09:17.345Z,99557.86
2018-07-05T03:13:31.808Z,99561.00
2018-07-05T03:17:46.327Z,99557.51
2018-07-05T03:22:01.835Z,99561.13
2018-07-05T03:26:17.416Z,99560.92
2018-07-05T03:30:35.313Z,99563.21
2018-07-05T03:34:49.852Z,99560.05
2018-07-05T03:39:04.914Z,99553.92
2018-07-05T03:43:19.498Z,99554.23
2018-07-05T03:47:36.094Z,99561.05
2018-07-05T03:51:50.685Z,99566.83
2018-07-05T03:56:05.327Z,99574.86
2018-07-05T04:00:20.923Z,99574.13
2018-07-05T04:04:35.529Z,99575.48
2018-07-05T04:08:50.267Z,99575.67
2018-07-05T04:13:04.706Z,99571.85
2018-07-05T04:17:19.444Z,99574.53
2018-07-05T04:21:33.971Z,99575.80
2018-07-05T04:25:48.528Z,99574.47
2018-07-05T04:30:03.200Z,99571.30
2018-07-05T04:34:17.915Z,99567.70
2018-07-05T04:38:32.540Z,99569.17
2018-07-05T04:42:47.089Z,99574.59
2018-07-05T04:47:01.779Z,99575.80
2018-07-05T04:51:16.447Z,99573.60
2018-07-05T04:55:31.077Z,99573.47
2018-07-05T04:59:45.759Z,99580.90
2018-07-05T05:04:00.412Z,99579.33
2018-07-05T05:08:15.080Z,99579.86
2018-07-05T05:12:29.783Z,99580.65
2018-07-05T05:16:50.990Z,99582.41
2018-07-05T05:21:40.427Z,99578.91
2018-07-05T05:30:19.805Z,99576.63
2018-07-05T05:57:27.742Z,99581.23
2018-07-05T06:01:50.815Z,99577.89
2018-07-05T06:10:42.957Z,99585.97
2018-07-05T06:15:00.460Z,99582.84
2018-07-05T06:19:18.629Z,99585.66
2018-07-05T06:23:33.418Z,99587.27
2018-07-05T06:27:48.093Z,99580.83
2018-07-05T06:32:02.826Z,99579.91
2018-07-05T06:36:17.503Z,99574.62
2018-07-05T06:40:32.386Z,99574.69
2018-07-05T06:44:47.041Z,99578.20
2018-07-05T06:49:01.762Z,99574.37
2018-07-05T06:53:16.491Z,99576.51
2018-07-05T06:57:31.264Z,99571.09
2018-07-05T07:01:45.850Z,99573.70
2018-07-05T07:06:00.650Z,99572.77
2018-07-05T07:10:15.243Z,99571.22
2018-07-05T07:14:29.998Z,99564.02
2018-07-05T07:18:44.833Z,99560.09
2018-07-05T07:22:59.618Z,99553.15
2018-07-05T07:27:14.402Z,99544.42
2018-07-05T07:31:29.252Z,99535.34
2018-07-05T07:35:43.891Z,99531.38
2018-07-05T07:39:58.521Z,99533.39
2018-07-05T07:44:00.775Z,99527.46
2018-07-05T07:48:03.001Z,99521.27
2018-07-05T07:52:05.245Z,99521.66
2018-07-05T07:56:07.480Z,99518.77
2018-07-05T08:00:09.698Z,99511.61
2018-07-05T08:04:11.935Z,99506.53
2018-07-05T08:08:14.211Z,99498.05
2018-07-05T08:12:16.399Z,99495.86
2018-07-05T08:16:18.617Z,99499.20
2018-07-05T08:20:20.891Z,99501.36
2018-07-05T08:24:23.068Z,99504.84
2018-07-05T08:28:25.307Z,99496.40
2018-07-05T08:32:27.550Z,99497.07
2018-07-05T08:36:29.789Z,99492.93
2018-07-05T08:40:32.044Z,99488.39
2018-07-05T08:44:34.371Z,99495.58
2018-07-05T08:48:36.609Z,99479.41
2018-07-05T08:52:38.850Z,99479.96
2018-07-05T08:56:41.085Z,99481.17
2018-07-05T09:00:43.317Z,99483.00
2018-07-05T09:04:45.549Z,99468.44
2018-07-05T09:08:47.762Z,99464.48
2018-07-05T09:12:50.002Z,99463.48
2018-07-05T09:16:52.217Z,99465.80
2018-07-05T09:20:54.460Z,99461.59
2018-07-05T09:24:56.708Z,99459.48
2018-07-05T09:28:58.962Z,99466.44
2018-07-05T09:33:01.174Z,99453.38
2018-07-05T09:37:03.814Z,99447.80
2018-07-05T09:41:05.958Z,99440.78
2018-07-05T09:45:08.190Z,99441.07
2018-07-05T09:49:10.432Z,99433.83
2018-07-05T09:53:12.645Z,99423.73
2018-07-05T09:57:14.885Z,99410.99
2018-07-05T10:01:17.082Z,99416.45
2018-07-05T10:05:19.309Z,99411.39
2018-07-05T10:09:21.567Z,99410.31
2018-07-05T10:13:23.882Z,99404.56
2018-07-05T10:17:26.045Z,99400.31
2018-07-05T10:21:28.326Z,99400.45
2018-07-05T10:25:30.561Z,99395.20
2018-07-05T10:29:45.212Z,99388.45
2018-07-05T10:33:49.092Z,99376.78
2018-07-05T10:37:53.057Z,99376.64
2018-07-05T10:42:07.534Z,99378.86
2018-07-05T10:46:22.348Z,99372.20
2018-07-05T10:50:37.147Z,99369.97
2018-07-05T10:54:51.896Z,99362.94
2018-07-05T10:59:06.519Z,99357.66
2018-07-05T11:03:21.259Z,99358.08
2018-07-05T11:07:35.989Z,99348.13
2018-07-05T11:11:50.705Z,99349.48
2018-07-05T11:16:05.450Z,99340.78
2018-07-05T11:20:20.238Z,99328.93
2018-07-05T11:24:34.815Z,99321.41
2018-07-05T11:28:49.458Z,99315.73
2018-07-05T11:33:04.061Z,99311.61
2018-07-05T11:37:18.691Z,99307.42
2018-07-05T11:41:33.509Z,99295.95
2018-07-05T11:45:48.038Z,99286.22
2018-07-05T11:50:02.845Z,99284.80
2018-07-05T11:54:17.622Z,99272.73
2018-07-05T11:58:32.690Z,99273.47
2018-07-05T12:02:47.502Z,99260.67
2018-07-05T12:07:02.171Z,99258.09
2018-07-05T12:11:16.840Z,99261.36
2018-07-05T12:15:31.541Z,99255.50
2018-07-05T12:19:46.345Z,99248.17
2018-07-05T12:24:01.249Z,99247.90
2018-07-05T12:28:15.979Z,99249.94
2018-07-05T12:32:30.513Z,99251.94
2018-07-05T12:36:45.616Z,99247.02
2018-07-05T12:41:00.245Z,99233.92
2018-07-05T12:45:14.949Z,99223.55
2018-07-05T12:49:29.705Z,99211.61
2018-07-05T12:53:44.398Z,99207.91
2018-07-05T12:57:59.193Z,99209.66
2018-07-05T13:02:13.861Z,99193.59
2018-07-05T13:06:28.496Z,99194.11
2018-07-05T13:10:43.161Z,99195.33
2018-07-05T13:14:57.809Z,99197.08
2018-07-05T13:19:12.545Z,99197.19
2018-07-05T13:23:27.337Z,99184.27
2018-07-05T13:27:42.493Z,99175.86
2018-07-05T13:31:57.186Z,99176.11
2018-07-05T13:36:11.912Z,99172.08
2018-07-05T13:40:26.609Z,99170.72
2018-07-05T13:44:41.327Z,99162.59
2018-07-05T13:48:56.127Z,99165.50
2018-07-05T13:53:10.844Z,99164.83
2018-07-05T13:57:25.693Z,99170.95
2018-07-05T14:01:40.373Z,99162.08
2018-07-05T14:05:55.035Z,99163.83
2018-07-05T14:10:09.692Z,99163.53
2018-07-05T14:14:24.338Z,99164.50
2018-07-05T14:18:39.022Z,99165.80
2018-07-05T14:22:53.674Z,99158.98
2018-07-05T14:27:08.413Z,99158.98
2018-07-05T14:31:23.241Z,99143.95
2018-07-05T14:35:37.857Z,99142.67
2018-07-05T14:39:52.549Z,99129.73
2018-07-05T14:44:07.218Z,99126.69
2018-07-05T14:48:21.832Z,99118.45
2018-07-05T14:52:36.502Z,99114.89
2018-07-05T14:56:51.344Z,99113.98
2018-07-05T15:01:05.975Z,99113.89
2018-07-05T15:05:20.761Z,99115.67
2018-07-05T15:09:35.448Z,99111.75
2018-07-05T15:13:50.158Z,99107.48
2018-07-05T15:18:04.848Z,99112.34
2018-07-05T15:22:19.490Z,99108.11
2018-07-05T15:26:34.246Z,99102.73
2018-07-05T15:30:48.969Z,99096.24
2018-07-05T15:35:03.647Z,99099.55
2018-07-05T15:39:18.503Z,99098.14
2018-07-05T15:43:33.188Z,99092.28
2018-07-05T15:47:47.881Z,99082.39
2018-07-05T15:52:02.506Z,99075.23
2018-07-05T15:56:17.215Z,99069.52
2018-07-05T16:00:31.997Z,99079.28
2018-07-05T16:04:46.713Z,99077.14
2018-07-05T16:09:01.415Z,99069.87
2018-07-05T16:13:15.984Z,99064.29
2018-07-05T16:17:30.671Z,99074.04
2018-07-05T16:21:45.317Z,99071.83
2018-07-05T16:26:00.070Z,99083.47
2018-07-05T16:30:14.873Z,99076.62
2018-07-05T16:34:29.562Z,99074.75
2018-07-05T16:38:44.213Z,99090.22
2018-07-05T16:42:58.899Z,99098.23
2018-07-05T16:47:14.389Z,99102.88
2018-07-05T16:51:29.287Z,99103.39
2018-07-05T16:55:44.068Z,99103.56
2018-07-05T16:59:59.802Z,99105.80
2018-07-05T17:04:15.380Z,99117.54
2018-07-05T17:08:30.155Z,99131.29
2018-07-05T17:12:44.984Z,99149.32
2018-07-05T17:16:59.691Z,99146.02
2018-07-05T17:21:14.448Z,99142.84
2018-07-05T17:25:29.080Z,99148.31
2018-07-05T17:29:44.037Z,99168.71
2018-07-05T17:33:58.709Z,99166.95
2018-07-05T17:38:13.314Z,99164.69
2018-07-05T17:42:27.913Z,99174.34
2018-07-05T17:46:42.533Z,99176.94
2018-07-05T17:50:57.274Z,99194.45
2018-07-05T17:55:12.043Z,99212.56
2018-07-05T17:59:27.854Z,99215.03
2018-07-05T18:03:42.616Z,99223.03
2018-07-05T18:07:57.316Z,99213.62
2018-07-05T18:12:12.145Z,99206.59
2018-07-05T18:16:26.892Z,99197.62
2018-07-05T18:20:43.636Z,99200.91
2018-07-05T18:24:58.406Z,99201.43
2018-07-05T18:29:13.093Z,99190.14
2018-07-05T18:33:27.927Z,99204.80
2018-07-05T18:37:42.579Z,99202.74
2018-07-05T18:41:57.329Z,99205.25
2018-07-05T18:46:12.050Z,99211.37
2018-07-05T18:50:26.839Z,99211.59
2018-07-05T18:54:41.512Z,99219.45
2018-07-05T18:58:57.239Z,99227.27
2018-07-05T19:03:11.873Z,99231.67
2018-07-05T19:07:26.669Z,99233.14
2018-07-05T19:11:41.416Z,99233.14
2018-07-05T19:15:56.042Z,99239.78
2018-07-05T19:20:10.689Z,99229.33
2018-07-05T19:24:25.480Z,99228.20
2018-07-05T19:28:40.204Z,99240.45
2018-07-05T19:32:55.007Z,99247.10
2018-07-05T19:37:09.599Z,99254.10
2018-07-05T19:41:24.326Z,99251.58
2018-07-05T19:45:39.113Z,99252.00
2018-07-05T19:49:55.038Z,99258.82
2018-07-05T19:54:09.823Z,99259.45
2018-07-05T19:58:24.500Z,99264.47
2018-07-05T20:02:39.278Z,99273.48
2018-07-05T20:06:54.919Z,99285.17
2018-07-05T20:11:09.720Z,99276.25
2018-07-05T20:15:25.373Z,99284.03
2018-07-05T20:19:40.189Z,99272.55
2018-07-05T20:23:54.915Z,99280.47
2018-07-05T20:28:09.635Z,99277.78
2018-07-05T20:32:24.497Z,99290.61
2018-07-05T20:36:39.268Z,99288.77
2018-07-05T20:40:54.292Z,99294.69
2018-07-05T20:45:08.845Z,99307.77
2018-07-05T20:49:23.649Z,99304.42
2018-07-05T20:53:38.491Z,99310.86
2018-07-05T20:57:53.243Z,99304.45
2018-07-05T21:02:09.017Z,99307.53
2018-07-05T21:06:23.762Z,99308.91
2018-07-05T21:10:38.566Z,99316.42
2018-07-05T21:14:55.322Z,99322.00
2018-07-05T21:19:10.034Z,99321.44
2018-07-05T21:23:26.130Z,99328.85
2018-07-05T21:27:41.821Z,99342.15
2018-07-05T21:31:56.605Z,99361.59
2018-07-05T21:36:11.278Z,99379.47
2018-07-05T21:40:26.121Z,99380.91
2018-07-05T21:44:40.837Z,99395.93
2018-07-05T21:48:55.542Z,99411.91
2018-07-05T21:53:11.218Z,99433.06
2018-07-05T21:57:25.941Z,99446.44
2018-07-05T22:01:41.686Z,99444.76
2018-07-05T22:05:56.430Z,99448.61
2018-07-05T22:10:11.082Z,99441.83
2018-07-05T22:14:25.949Z,99431.05
2018-07-05T22:18:46.028Z,99444.05
2018-07-05T22:24:10.042Z,99447.77
2018-07-05T22:28:30.286Z,99450.86
2018-07-05T22:32:44.975Z,99449.80
2018-07-05T22:36:59.714Z,99456.56
2018-07-05T22:41:14.538Z,99444.34
2018-07-05T22:45:29.178Z,99439.96
2018-07-05T22:49:43.959Z,99427.60
2018-07-05T22:53:59.725Z,99422.11
2018-07-05T22:58:14.925Z,99422.55
2018-07-05T23:02:29.622Z,99408.85
2018-07-05T23:06:44.396Z,99400.66
2018-07-05T23:10:59.151Z,99400.19
2018-07-05T23:15:13.866Z,99390.39
2018-07-05T23:19:28.575Z,99392.99
2018-07-05T23:23:43.180Z,99390.64
2018-07-05T23:27:57.853Z,99386.24
2018-07-05T23:32:14.522Z,99381.99
2018-07-05T23:36:31.078Z,99374.46
2018-07-05T23:40:45.878Z,99367.75
2018-07-05T23:45:01.587Z,99355.61
2018-07-05T23:49:16.346Z,99360.25
2018-07-05T23:53:31.985Z,99364.11
2018-07-05T23:57:47.733Z,99361.02
